Time;durP1;ratioP1;P1;durP2;ratioP2;P2;SDS_P1;SDS_P2;PMS_P1;PMS_P2;Temp;Humidity;BMP_temperature;BMP_pressure;BME280_temperature;BME280_humidity;BME280_pressure;Samples;Min_cycle;Max_cycle;Signal;HPM_P1;HPM_P2
2021/01/28 00:00:12;;;;;;;8.38;4.20;;;4.90;99.90;;;;;;4931247;29;20087;-71
2021/01/28 00:02:38;;;;;;;7.85;3.80;;;5.00;99.90;;;;;;4931245;29;20175;-72
2021/01/28 00:05:05;;;;;;;7.25;3.45;;;4.90;99.90;;;;;;4930967;29;20036;-71
2021/01/28 00:07:31;;;;;;;6.93;3.35;;;4.90;99.90;;;;;;4931071;29;20088;-75
2021/01/28 00:09:56;;;;;;;6.10;3.70;;;4.90;99.90;;;;;;4931239;29;20032;-73
2021/01/28 00:12:22;;;;;;;12.93;3.58;;;4.90;99.90;;;;;;4931151;29;20111;-72
2021/01/28 00:14:48;;;;;;;8.40;3.45;;;4.90;99.90;;;;;;4931294;29;20043;-71
2021/01/28 00:17:14;;;;;;;9.50;3.47;;;4.90;99.90;;;;;;4931084;29;20043;-72
2021/01/28 00:19:40;;;;;;;5.25;2.70;;;4.90;99.90;;;;;;4913870;29;20032;-72
2021/01/28 00:22:06;;;;;;;6.78;3.20;;;5.00;99.90;;;;;;4926928;29;20066;-72
2021/01/28 00:24:31;;;;;;;6.43;3.45;;;4.90;99.90;;;;;;4930949;29;20035;-72
2021/01/28 00:26:58;;;;;;;6.93;3.85;;;4.90;99.90;;;;;;4930925;29;20032;-72
2021/01/28 00:29:25;;;;;;;2.88;2.17;;;4.90;99.90;;;;;;4931444;29;20032;-73
2021/01/28 00:31:51;;;;;;;4.00;2.28;;;4.90;99.90;;;;;;4930905;29;20036;-72
2021/01/28 00:34:17;;;;;;;5.28;2.45;;;4.90;99.90;;;;;;4930954;29;20429;-72
2021/01/28 00:36:43;;;;;;;6.07;2.63;;;4.90;99.90;;;;;;4930942;29;20035;-71
2021/01/28 00:39:09;;;;;;;6.07;1.98;;;4.90;99.90;;;;;;4930417;29;20032;-70
2021/01/28 00:41:35;;;;;;;7.57;3.53;;;4.80;99.90;;;;;;4930562;29;20044;-70
2021/01/28 00:44:00;;;;;;;3.38;2.10;;;4.90;99.90;;;;;;4930742;29;20039;-70
2021/01/28 00:46:26;;;;;;;4.63;2.13;;;4.90;99.90;;;;;;4930724;29;20033;-71
2021/01/28 00:48:53;;;;;;;5.00;1.95;;;4.90;99.90;;;;;;4929049;29;20056;-71
2021/01/28 00:51:19;;;;;;;4.18;2.03;;;4.90;99.90;;;;;;4930142;29;20034;-72
2021/01/28 00:53:44;;;;;;;6.28;3.08;;;4.90;99.90;;;;;;4930146;29;20087;-71
2021/01/28 00:56:10;;;;;;;9.25;2.85;;;4.90;99.90;;;;;;4930508;29;20032;-70
2021/01/28 00:58:35;;;;;;;8.05;2.65;;;4.80;99.90;;;;;;4930418;29;20028;-71
2021/01/28 01:01:03;;;;;;;9.90;2.13;;;4.80;99.90;;;;;;4930001;29;20069;-71
2021/01/28 01:03:29;;;;;;;4.05;2.40;;;4.80;99.90;;;;;;4930738;29;20024;-73
2021/01/28 01:05:56;;;;;;;3.05;1.52;;;4.80;99.90;;;;;;4930238;29;20056;-73
2021/01/28 01:08:32;;;;;;;4.07;2.63;;;4.80;99.90;;;;;;4930325;29;20119;-71
2021/01/28 01:11:02;;;;;;;2.40;2.05;;;4.80;99.90;;;;;;4930527;29;20039;-73
2021/01/28 01:13:34;;;;;;;3.53;1.60;;;4.80;99.90;;;;;;4929985;29;20120;-72
2021/01/28 01:16:02;;;;;;;2.55;1.70;;;4.90;99.90;;;;;;4929017;29;20064;-71
2021/01/28 01:18:30;;;;;;;4.00;1.98;;;4.80;99.90;;;;;;4930120;29;20032;-72
2021/01/28 01:20:56;;;;;;;4.57;2.28;;;4.80;99.90;;;;;;4929557;29;20109;-72
2021/01/28 01:23:22;;;;;;;6.30;2.13;;;4.80;99.90;;;;;;4930312;29;20032;-72
2021/01/28 01:25:48;;;;;;;3.08;1.92;;;4.80;99.90;;;;;;4930244;29;20134;-71
2021/01/28 01:28:14;;;;;;;4.05;2.40;;;4.80;99.90;;;;;;4929349;29;20028;-70
2021/01/28 01:30:40;;;;;;;3.90;2.05;;;4.80;99.90;;;;;;4930022;29;20032;-70
2021/01/28 01:33:06;;;;;;;3.92;1.65;;;4.80;99.90;;;;;;4929717;29;20469;-72
2021/01/28 01:35:32;;;;;;;1.95;1.67;;;4.80;99.90;;;;;;4929485;29;20040;-71
2021/01/28 01:37:59;;;;;;;3.05;1.98;;;4.80;99.90;;;;;;4929706;29;20028;-71
2021/01/28 01:40:40;;;;;;;6.60;2.25;;;4.80;99.90;;;;;;4929071;29;20055;-71
2021/01/28 01:43:08;;;;;;;3.05;1.85;;;4.80;99.90;;;;;;4929009;29;20040;-70
2021/01/28 01:45:38;;;;;;;4.72;1.92;;;4.80;99.90;;;;;;4929795;29;20032;-70
2021/01/28 01:48:42;;;;;;;5.10;2.10;;;4.80;99.90;;;;;;4928812;29;20055;-70
2021/01/28 01:51:23;;;;;;;3.97;2.22;;;4.80;99.90;;;;;;4927230;29;20074;-70
2021/01/28 01:54:20;;;;;;;3.15;1.73;;;4.80;99.90;;;;;;4929204;29;20080;-72
2021/01/28 01:56:52;;;;;;;4.55;2.60;;;4.80;99.90;;;;;;4918821;29;20745;-70
2021/01/28 01:59:22;;;;;;;3.33;2.00;;;4.70;99.90;;;;;;4928593;29;20032;-70
2021/01/28 02:01:56;;;;;;;3.97;2.58;;;4.70;99.90;;;;;;4928823;29;20067;-70
2021/01/28 02:04:23;;;;;;;14.85;3.10;;;4.70;99.90;;;;;;4929593;29;20028;-72
2021/01/28 02:06:54;;;;;;;8.57;2.42;;;4.70;99.90;;;;;;4929305;29;20047;-70
2021/01/28 02:09:20;;;;;;;6.13;2.92;;;4.60;99.90;;;;;;4928850;29;20036;-71
2021/01/28 02:11:47;;;;;;;12.85;2.33;;;4.60;99.90;;;;;;4912050;29;20028;-70
2021/01/28 02:14:15;;;;;;;2.80;1.80;;;4.60;99.90;;;;;;4928938;29;20145;-71
2021/01/28 02:16:54;;;;;;;2.75;2.10;;;4.60;99.90;;;;;;4928826;29;20043;-70
2021/01/28 02:19:51;;;;;;;3.88;1.90;;;4.60;99.90;;;;;;4928863;29;20071;-69
2021/01/28 02:22:48;;;;;;;2.25;1.75;;;4.50;99.90;;;;;;4928278;29;20056;-68
2021/01/28 02:25:27;;;;;;;2.45;1.85;;;4.50;99.90;;;;;;4930064;29;20039;-69
2021/01/28 02:27:59;;;;;;;5.22;2.15;;;4.40;99.90;;;;;;4929925;29;20060;-70
2021/01/28 02:30:27;;;;;;;5.22;1.80;;;4.40;99.90;;;;;;4912248;29;20035;-70
2021/01/28 02:32:54;;;;;;;5.25;2.08;;;4.30;99.90;;;;;;4929090;29;20035;-71
2021/01/28 02:35:27;;;;;;;6.07;2.05;;;4.30;99.90;;;;;;4928899;29;20051;-70
2021/01/28 02:37:55;;;;;;;3.33;1.83;;;4.20;99.90;;;;;;4928769;29;20171;-71
2021/01/28 02:40:24;;;;;;;7.68;1.77;;;4.20;99.90;;;;;;4928821;29;20047;-70
2021/01/28 02:42:51;;;;;;;4.38;1.60;;;4.10;99.90;;;;;;4928684;29;20052;-70
2021/01/28 02:45:28;;;;;;;3.67;1.67;;;4.10;99.90;;;;;;4928190;29;20032;-70
2021/01/28 02:47:56;;;;;;;11.13;2.63;;;4.00;99.90;;;;;;4911495;29;20028;-72
2021/01/28 02:50:25;;;;;;;3.40;1.48;;;4.00;99.90;;;;;;4928532;29;20043;-71
2021/01/28 02:52:57;;;;;;;4.82;1.70;;;3.90;99.90;;;;;;4928709;29;20036;-70
2021/01/28 02:55:26;;;;;;;9.25;1.67;;;3.90;99.90;;;;;;4928452;29;20036;-70
2021/01/28 02:57:53;;;;;;;2.83;1.05;;;3.90;99.90;;;;;;4928044;29;20481;-69
2021/01/28 03:00:26;;;;;;;11.93;2.13;;;3.80;99.90;;;;;;4928303;29;20100;-70
2021/01/28 03:02:53;;;;;;;4.00;1.10;;;3.80;99.90;;;;;;4927975;29;20036;-71
2021/01/28 03:05:19;;;;;;;3.10;1.52;;;3.80;99.90;;;;;;4910665;29;20397;-70
2021/01/28 03:07:47;;;;;;;2.03;1.30;;;3.80;99.90;;;;;;4928444;29;20032;-70
2021/01/28 03:10:14;;;;;;;4.63;1.35;;;3.80;99.90;;;;;;4927919;29;20035;-70
2021/01/28 03:12:39;;;;;;;2.67;1.30;;;3.80;99.90;;;;;;4928212;29;20043;-70
2021/01/28 03:15:07;;;;;;;4.47;1.67;;;3.80;99.90;;;;;;4927956;29;20028;-70
2021/01/28 03:17:33;;;;;;;6.75;1.40;;;3.80;99.90;;;;;;4927644;29;20060;-71
2021/01/28 03:20:00;;;;;;;2.15;0.85;;;3.80;99.90;;;;;;4928005;29;20036;-71
2021/01/28 03:22:25;;;;;;;10.05;1.60;;;3.70;99.90;;;;;;4927931;29;20091;-71
2021/01/28 03:24:51;;;;;;;2.60;1.00;;;3.70;99.90;;;;;;4926516;29;20388;-70
2021/01/28 03:27:18;;;;;;;1.63;1.23;;;3.70;99.90;;;;;;4927936;29;20047;-70
2021/01/28 03:29:43;;;;;;;3.10;1.50;;;3.70;99.90;;;;;;4927981;29;20060;-70
2021/01/28 03:32:09;;;;;;;3.40;1.17;;;3.60;99.90;;;;;;4927689;29;20032;-70
2021/01/28 03:34:35;;;;;;;3.08;1.60;;;3.60;99.90;;;;;;4927925;29;20111;-69
2021/01/28 03:37:02;;;;;;;7.90;1.45;;;3.50;99.90;;;;;;4927917;29;20039;-70
2021/01/28 03:39:28;;;;;;;2.25;1.42;;;3.50;99.90;;;;;;4927458;29;20024;-70
2021/01/28 03:41:54;;;;;;;2.95;1.30;;;3.50;99.90;;;;;;4928194;29;20051;-70
2021/01/28 03:44:20;;;;;;;3.72;1.75;;;3.40;99.90;;;;;;4928114;29;20028;-70
2021/01/28 03:46:45;;;;;;;9.02;1.50;;;3.40;99.90;;;;;;4927544;29;20056;-70
2021/01/28 03:49:11;;;;;;;5.88;1.58;;;3.40;99.90;;;;;;4927909;29;20028;-70
2021/01/28 03:51:36;;;;;;;5.35;2.03;;;3.40;99.90;;;;;;4927435;29;20093;-70
2021/01/28 03:54:03;;;;;;;4.50;2.05;;;3.40;99.90;;;;;;4927671;29;20024;-71
2021/01/28 03:56:28;;;;;;;5.80;2.47;;;3.40;99.90;;;;;;4927964;29;20021;-70
2021/01/28 03:58:54;;;;;;;6.07;1.25;;;3.30;99.90;;;;;;4926370;29;20028;-70
2021/01/28 04:01:20;;;;;;;9.15;1.73;;;3.40;99.90;;;;;;4927640;29;20040;-71
2021/01/28 04:03:45;;;;;;;4.70;1.92;;;3.30;99.90;;;;;;4927947;29;20103;-70
2021/01/28 04:06:11;;;;;;;19.15;2.42;;;3.40;99.90;;;;;;4927366;29;20477;-70
2021/01/28 04:08:37;;;;;;;4.13;1.77;;;3.40;99.90;;;;;;4927458;29;20024;-71
2021/01/28 04:11:03;;;;;;;2.72;1.27;;;3.40;99.90;;;;;;4927383;29;20109;-70
2021/01/28 04:13:29;;;;;;;5.10;1.85;;;3.40;99.90;;;;;;4927222;29;20031;-70
2021/01/28 04:15:54;;;;;;;5.93;1.42;;;3.40;99.90;;;;;;4927832;29;20064;-71
2021/01/28 04:18:21;;;;;;;1.88;1.30;;;3.40;99.90;;;;;;4927809;29;20044;-70
2021/01/28 04:20:48;;;;;;;2.50;1.63;;;3.40;99.90;;;;;;4927002;29;20051;-70
2021/01/28 04:23:14;;;;;;;7.22;2.08;;;3.40;99.90;;;;;;4928873;29;20048;-70
2021/01/28 04:25:39;;;;;;;9.55;1.58;;;3.40;99.90;;;;;;4931136;29;20039;-71
2021/01/28 04:28:05;;;;;;;5.38;1.33;;;3.30;99.90;;;;;;4930569;29;20047;-71
2021/01/28 04:30:33;;;;;;;3.55;1.65;;;3.30;99.90;;;;;;4930955;29;20409;-71
2021/01/28 04:33:00;;;;;;;1.40;0.88;;;3.30;99.90;;;;;;4913837;29;20059;-70
2021/01/28 04:35:26;;;;;;;4.03;1.50;;;3.30;99.90;;;;;;4930872;29;20021;-71
2021/01/28 04:37:52;;;;;;;1.60;1.27;;;3.20;99.90;;;;;;4931259;29;20032;-70
2021/01/28 04:40:31;;;;;;;3.25;1.70;;;3.20;99.90;;;;;;4930670;29;20063;-70
2021/01/28 04:43:03;;;;;;;2.72;1.52;;;3.20;99.90;;;;;;4930489;29;20119;-71
2021/01/28 04:45:31;;;;;;;2.85;1.60;;;3.10;99.90;;;;;;4913757;29;20028;-71
2021/01/28 04:48:04;;;;;;;1.52;1.15;;;3.10;99.90;;;;;;4930079;29;20446;-72
2021/01/28 04:50:36;;;;;;;5.43;1.95;;;3.10;99.90;;;;;;4913551;29;20481;-71
2021/01/28 04:53:08;;;;;;;7.55;2.42;;;3.00;99.90;;;;;;4930656;29;20024;-70
2021/01/28 04:55:50;;;;;;;2.65;1.40;;;3.00;99.90;;;;;;4930363;29;20123;-70
2021/01/28 04:58:16;;;;;;;5.50;1.58;;;2.90;99.90;;;;;;4930487;29;20032;-70
2021/01/28 05:00:41;;;;;;;4.35;1.90;;;2.90;99.90;;;;;;4930322;29;20489;-71
2021/01/28 05:03:25;;;;;;;3.92;1.60;;;2.90;99.90;;;;;;4930176;29;20036;-71
2021/01/28 05:05:54;;;;;;;2.00;1.45;;;2.90;99.90;;;;;;4930583;29;20042;-70
2021/01/28 05:08:21;;;;;;;8.43;2.55;;;2.90;99.90;;;;;;4930250;29;20039;-70
2021/01/28 05:10:53;;;;;;;1.95;1.27;;;2.80;99.90;;;;;;4930164;29;20028;-71
2021/01/28 05:13:30;;;;;;;3.03;1.85;;;2.90;99.90;;;;;;4930215;29;20017;-70
2021/01/28 05:15:59;;;;;;;11.65;2.53;;;2.90;99.90;;;;;;4929917;29;20040;-71
2021/01/28 05:18:30;;;;;;;3.83;1.75;;;2.90;99.90;;;;;;4930355;29;20032;-71
2021/01/28 05:21:25;;;;;;;3.80;1.70;;;2.90;99.90;;;;;;4929744;29;20056;-71
2021/01/28 05:24:04;;;;;;;6.43;2.63;;;2.90;99.90;;;;;;4927334;29;20048;-72
2021/01/28 05:26:39;;;;;;;3.13;1.60;;;2.90;99.90;;;;;;4930242;29;20111;-72
2021/01/28 05:29:23;;;;;;;4.20;2.13;;;2.90;99.90;;;;;;4929770;29;20060;-72
2021/01/28 05:31:51;;;;;;;2.67;1.98;;;2.90;99.90;;;;;;4929955;29;20059;-71
2021/01/28 05:34:28;;;;;;;6.18;1.17;;;2.90;99.90;;;;;;4928924;29;20032;-72
2021/01/28 05:37:04;;;;;;;3.60;1.92;;;2.90;99.90;;;;;;4929641;29;20039;-73
2021/01/28 05:39:37;;;;;;;3.72;1.70;;;3.00;99.90;;;;;;4912684;29;20127;-72
2021/01/28 05:42:24;;;;;;;1.85;1.67;;;3.00;99.90;;;;;;4929757;29;20036;-71
2021/01/28 05:44:50;;;;;;;2.67;1.60;;;2.90;99.90;;;;;;4929765;29;20043;-71
2021/01/28 05:47:18;;;;;;;4.45;2.17;;;3.00;99.90;;;;;;4929736;29;20028;-71
2021/01/28 05:49:46;;;;;;;4.30;1.80;;;3.00;99.90;;;;;;4912384;29;20432;-71
2021/01/28 05:52:30;;;;;;;21.42;3.88;;;3.00;99.90;;;;;;4929176;29;20056;-71
2021/01/28 05:55:22;;;;;;;56.95;5.25;;;2.90;99.90;;;;;;4929662;29;20493;-72
2021/01/28 05:58:22;;;;;;;11.63;2.67;;;2.80;99.90;;;;;;4925703;29;20043;-71
2021/01/28 06:00:55;;;;;;;47.38;5.40;;;2.80;99.90;;;;;;4929248;29;20040;-71
2021/01/28 06:03:47;;;;;;;27.50;4.03;;;2.80;99.90;;;;;;4929410;29;20036;-71
2021/01/28 06:06:24;;;;;;;4.88;2.15;;;2.80;99.90;;;;;;4929105;29;20091;-71
2021/01/28 06:09:20;;;;;;;27.75;2.67;;;2.70;99.90;;;;;;4929252;29;20063;-72
2021/01/28 06:12:04;;;;;;;45.85;6.28;;;2.70;99.90;;;;;;4928780;29;20032;-71
2021/01/28 06:15:05;;;;;;;4.43;2.35;;;2.70;99.90;;;;;;4912123;29;20369;-71
2021/01/28 06:18:00;;;;;;;4.38;2.45;;;2.70;99.90;;;;;;4929038;29;20044;-71
2021/01/28 06:20:46;;;;;;;3.70;1.90;;;2.70;99.90;;;;;;4928719;29;20137;-71
2021/01/28 06:23:57;;;;;;;2.90;2.30;;;2.70;99.90;;;;;;4928969;29;20039;-70
2021/01/28 06:26:53;;;;;;;4.88;2.80;;;2.70;99.90;;;;;;4928936;29;20032;-71
2021/01/28 06:29:37;;;;;;;3.83;1.52;;;2.60;99.90;;;;;;4928802;29;20058;-70
2021/01/28 06:32:21;;;;;;;4.32;2.72;;;2.60;99.90;;;;;;4928526;29;20039;-71
2021/01/28 06:35:37;;;;;;;8.00;2.83;;;2.60;99.90;;;;;;4928963;29;20036;-71
2021/01/28 06:38:32;;;;;;;8.43;3.78;;;2.50;99.90;;;;;;4851519;29;20058;-72
2021/01/28 06:41:00;;;;;;;;;;;2.50;99.90;;;;;;4929107;29;20044;-72
2021/01/28 06:43:42;;;;;;;4.90;2.13;;;2.50;99.90;;;;;;4928562;29;19913;-71
2021/01/28 06:46:30;;;;;;;3.90;2.20;;;2.40;99.90;;;;;;4927896;29;20116;-72
2021/01/28 06:49:28;;;;;;;4.30;2.25;;;2.50;99.90;;;;;;4928744;29;20024;-70
2021/01/28 06:52:08;;;;;;;7.38;3.40;;;2.50;99.90;;;;;;4927288;29;20111;-72
2021/01/28 06:54:49;;;;;;;8.00;3.17;;;2.50;99.90;;;;;;4928324;29;20042;-71
2021/01/28 06:57:26;;;;;;;3.55;2.00;;;2.50;99.90;;;;;;4911181;29;20466;-71
2021/01/28 06:59:58;;;;;;;7.20;2.58;;;2.50;99.90;;;;;;4927531;29;20734;-71
2021/01/28 07:03:01;;;;;;;4.82;2.22;;;2.50;99.90;;;;;;4928121;29;20044;-72
2021/01/28 07:05:42;;;;;;;7.53;4.63;;;2.50;99.90;;;;;;4911231;29;20028;-71
2021/01/28 07:08:22;;;;;;;6.45;3.78;;;2.50;99.90;;;;;;4927296;29;20052;-71
2021/01/28 07:10:48;;;;;;;7.97;3.22;;;2.40;99.90;;;;;;4928254;29;20032;-71
2021/01/28 07:13:20;;;;;;;7.78;2.63;;;2.40;99.90;;;;;;4911058;29;20099;-73
2021/01/28 07:15:51;;;;;;;5.07;2.70;;;2.40;99.90;;;;;;4927799;29;20035;-71
2021/01/28 07:18:42;;;;;;;3.90;2.15;;;2.40;99.90;;;;;;4928051;29;20036;-71
2021/01/28 07:21:26;;;;;;;5.35;2.65;;;2.50;99.90;;;;;;4927271;29;20062;-71
2021/01/28 07:24:02;;;;;;;;;;;2.50;99.90;;;;;;4928454;29;20039;-71
2021/01/28 07:26:54;;;;;;;2.35;1.52;;;2.50;99.90;;;;;;4927752;29;19914;-71
2021/01/28 07:29:44;;;;;;;3.40;1.88;;;2.50;99.90;;;;;;4924712;29;20088;-71
2021/01/28 07:32:13;;;;;;;3.50;1.95;;;2.50;99.90;;;;;;4923947;29;20031;-71
2021/01/28 07:34:38;;;;;;;5.32;2.78;;;2.50;99.90;;;;;;4925889;29;20040;-71
2021/01/28 07:37:37;;;;;;;4.30;2.28;;;2.50;99.90;;;;;;4926187;29;20071;-72
2021/01/28 07:40:03;;;;;;;2.75;1.77;;;2.50;99.90;;;;;;4880961;29;20063;-72
2021/01/28 07:42:31;;;;;;;16.30;2.88;;;2.50;99.90;;;;;;4925698;29;20024;-73
2021/01/28 07:44:59;;;;;;;5.13;2.47;;;2.50;99.90;;;;;;4925063;29;20024;-73
2021/01/28 07:47:31;;;;;;;4.15;2.72;;;2.50;99.90;;;;;;4927828;29;20040;-72
2021/01/28 07:50:16;;;;;;;5.25;2.13;;;2.50;99.90;;;;;;4926572;29;20043;-73
2021/01/28 07:52:42;;;;;;;4.20;2.33;;;2.50;99.90;;;;;;4925897;29;20047;-72
2021/01/28 07:55:39;;;;;;;3.40;2.08;;;2.50;99.90;;;;;;4926875;29;20036;-72
2021/01/28 07:58:45;;;;;;;4.82;2.33;;;2.50;99.90;;;;;;4920407;29;20051;-72
2021/01/28 08:01:13;;;;;;;3.88;1.85;;;2.60;99.90;;;;;;4914629;29;20140;-72
2021/01/28 08:04:06;;;;;;;13.38;2.08;;;2.60;99.90;;;;;;4930954;29;20043;-72
2021/01/28 08:06:34;;;;;;;3.35;1.88;;;2.50;99.90;;;;;;4927790;29;20044;-71
2021/01/28 08:09:05;;;;;;;5.90;2.55;;;2.50;99.90;;;;;;4931060;29;20024;-72
2021/01/28 08:11:32;;;;;;;5.70;2.22;;;2.50;99.90;;;;;;4930869;29;20028;-72
2021/01/28 08:13:58;;;;;;;5.88;2.58;;;2.50;99.90;;;;;;4914132;29;20056;-72
2021/01/28 08:16:25;;;;;;;10.40;3.17;;;2.50;99.90;;;;;;4931416;29;20548;-71
2021/01/28 08:19:06;;;;;;;5.10;2.00;;;2.50;99.90;;;;;;4930397;29;20043;-71
2021/01/28 08:21:32;;;;;;;6.40;2.80;;;2.40;99.90;;;;;;4930267;29;20052;-72
2021/01/28 08:24:16;;;;;;;4.47;2.28;;;2.50;99.90;;;;;;4930834;29;20032;-72
2021/01/28 08:26:43;;;;;;;4.00;2.25;;;2.50;99.90;;;;;;4913996;29;20024;-72
2021/01/28 08:29:19;;;;;;;4.55;2.55;;;2.50;99.90;;;;;;4930197;29;20028;-71
2021/01/28 08:31:54;;;;;;;6.95;2.72;;;2.40;99.90;;;;;;4930177;29;20056;-72
2021/01/28 08:34:27;;;;;;;7.40;2.67;;;2.40;99.90;;;;;;4930505;29;20059;-71
2021/01/28 08:36:56;;;;;;;5.15;2.05;;;2.30;99.90;;;;;;4930977;29;20040;-71
2021/01/28 08:39:36;;;;;;;5.90;2.40;;;2.30;99.90;;;;;;4912401;29;20089;-71
2021/01/28 08:42:07;;;;;;;4.88;2.42;;;2.30;99.90;;;;;;4929491;29;20042;-71
2021/01/28 08:44:34;;;;;;;4.68;1.75;;;2.30;99.90;;;;;;4930382;29;20102;-71
2021/01/28 08:47:10;;;;;;;5.78;3.30;;;2.30;99.90;;;;;;4929056;29;20048;-72
2021/01/28 08:49:37;;;;;;;6.82;3.38;;;2.30;99.90;;;;;;4930320;29;20036;-70
2021/01/28 08:52:16;;;;;;;12.50;3.55;;;2.20;99.90;;;;;;4929969;29;20034;-72
2021/01/28 08:54:44;;;;;;;3.65;2.35;;;2.20;99.90;;;;;;4929655;29;20028;-71
2021/01/28 08:57:17;;;;;;;9.25;3.33;;;2.20;99.90;;;;;;4930142;29;20092;-71
2021/01/28 08:59:42;;;;;;;6.25;3.58;;;2.20;99.90;;;;;;4929818;29;20032;-70
2021/01/28 09:02:13;;;;;;;10.70;3.28;;;2.30;99.90;;;;;;4929664;29;20459;-71
2021/01/28 09:04:42;;;;;;;7.38;3.53;;;2.30;99.90;;;;;;4928236;29;20055;-70
2021/01/28 09:07:09;;;;;;;7.07;3.53;;;2.30;99.90;;;;;;4928433;29;20032;-70
2021/01/28 09:09:35;;;;;;;7.15;3.33;;;2.40;99.90;;;;;;4929108;29;20032;-71
2021/01/28 09:12:28;;;;;;;7.82;4.45;;;2.40;99.90;;;;;;4929420;29;20032;-70
2021/01/28 09:15:23;;;;;;;6.10;3.15;;;2.40;99.90;;;;;;4911065;29;20060;-71
2021/01/28 09:17:53;;;;;;;7.40;2.97;;;2.40;99.90;;;;;;4911365;29;20549;-71
2021/01/28 09:20:32;;;;;;;7.22;3.40;;;2.40;99.90;;;;;;4910590;29;20040;-70
2021/01/28 09:23:15;;;;;;;7.45;4.35;;;2.50;99.90;;;;;;4909594;29;20092;-71
2021/01/28 09:25:43;;;;;;;6.45;3.67;;;2.50;99.90;;;;;;4910753;29;20033;-70
2021/01/28 09:28:20;;;;;;;8.10;4.38;;;2.50;99.90;;;;;;4893827;29;20155;-71
2021/01/28 09:30:49;;;;;;;7.13;4.32;;;2.60;99.90;;;;;;4910845;29;20061;-71
2021/01/28 09:33:24;;;;;;;6.50;3.60;;;2.60;99.90;;;;;;4910477;29;20043;-71
2021/01/28 09:36:09;;;;;;;6.78;3.60;;;2.60;99.90;;;;;;4910918;29;20029;-70
2021/01/28 09:38:34;;;;;;;9.63;4.85;;;2.60;99.90;;;;;;4910897;29;20036;-71
2021/01/28 09:41:15;;;;;;;11.75;5.18;;;2.60;99.90;;;;;;4910697;29;20048;-72
2021/01/28 09:43:41;;;;;;;9.20;3.75;;;2.60;99.90;;;;;;4910848;29;20032;-70
2021/01/28 09:46:17;;;;;;;8.32;4.20;;;2.60;99.90;;;;;;4914327;29;20100;-71
2021/01/28 09:48:48;;;;;;;9.07;4.15;;;2.70;99.90;;;;;;4929031;29;20492;-71
2021/01/28 09:51:19;;;;;;;11.13;3.10;;;2.80;99.90;;;;;;4929178;29;20040;-71
2021/01/28 09:54:15;;;;;;;11.20;3.97;;;2.80;99.90;;;;;;4929348;29;20040;-71
2021/01/28 09:56:41;;;;;;;6.10;3.67;;;2.90;99.90;;;;;;4929155;29;20028;-70
2021/01/28 09:59:07;;;;;;;11.07;4.05;;;2.90;99.90;;;;;;4929626;29;20114;-71
2021/01/28 10:01:33;;;;;;;6.47;3.38;;;2.90;99.90;;;;;;4928538;29;20385;-70
2021/01/28 10:03:59;;;;;;;8.52;3.45;;;3.00;99.90;;;;;;4911807;29;20028;-71
2021/01/28 10:06:24;;;;;;;11.07;4.38;;;3.00;99.90;;;;;;4929372;29;20039;-71
2021/01/28 10:08:50;;;;;;;6.45;3.42;;;3.10;99.90;;;;;;4928749;29;20051;-70
2021/01/28 10:11:16;;;;;;;8.48;3.85;;;3.00;99.90;;;;;;4928845;29;20028;-71
2021/01/28 10:13:45;;;;;;;4.90;2.85;;;3.10;99.90;;;;;;4912062;29;20035;-71
2021/01/28 10:16:11;;;;;;;11.48;3.72;;;3.10;99.90;;;;;;4928620;29;20064;-71
2021/01/28 10:18:36;;;;;;;10.73;3.38;;;3.10;99.90;;;;;;4929015;29;20488;-71
2021/01/28 10:21:04;;;;;;;8.77;3.50;;;3.20;99.90;;;;;;4927902;29;20059;-72
2021/01/28 10:23:29;;;;;;;7.32;3.85;;;3.20;99.90;;;;;;4927041;29;20028;-70
2021/01/28 10:25:55;;;;;;;6.72;3.35;;;3.30;99.90;;;;;;4927480;29;20493;-70
2021/01/28 10:28:20;;;;;;;10.15;3.92;;;3.30;99.90;;;;;;4927316;29;20080;-70
2021/01/28 10:30:47;;;;;;;7.78;3.30;;;3.30;99.90;;;;;;4927834;29;20666;-70
2021/01/28 10:33:13;;;;;;;5.07;2.80;;;3.30;99.90;;;;;;4927374;29;20042;-71
2021/01/28 10:35:38;;;;;;;8.35;3.65;;;3.30;99.90;;;;;;4927253;29;20040;-70
2021/01/28 10:38:05;;;;;;;6.68;4.05;;;3.30;99.90;;;;;;4925994;29;20248;-71
2021/01/28 10:40:32;;;;;;;7.32;3.65;;;3.30;99.90;;;;;;4927652;29;20092;-69
2021/01/28 10:43:02;;;;;;;8.32;3.28;;;3.30;99.90;;;;;;4927439;29;20036;-71
2021/01/28 10:45:31;;;;;;;8.68;3.67;;;3.30;99.90;;;;;;4927870;29;20024;-71
2021/01/28 10:47:58;;;;;;;5.78;3.13;;;3.30;99.90;;;;;;4928777;29;20028;-71
2021/01/28 10:50:25;;;;;;;10.48;3.30;;;3.30;99.90;;;;;;4928142;29;20032;-73
2021/01/28 10:52:51;;;;;;;7.63;2.90;;;3.40;99.90;;;;;;4927783;29;20042;-70
2021/01/28 10:55:18;;;;;;;3.88;2.60;;;3.40;99.90;;;;;;4927820;29;20459;-69
2021/01/28 10:57:44;;;;;;;9.75;3.45;;;3.30;99.90;;;;;;4927390;29;20119;-70
2021/01/28 11:00:12;;;;;;;5.65;2.92;;;3.30;99.90;;;;;;4927575;29;20036;-70
2021/01/28 11:02:37;;;;;;;7.35;2.70;;;3.40;99.90;;;;;;4927812;29;20047;-70
2021/01/28 11:05:06;;;;;;;8.05;3.42;;;3.40;99.90;;;;;;4927697;29;20028;-71
2021/01/28 11:07:31;;;;;;;4.90;2.53;;;3.30;99.90;;;;;;4927021;29;20036;-71
2021/01/28 11:09:57;;;;;;;6.65;2.88;;;3.40;99.90;;;;;;4927935;29;20038;-72
2021/01/28 11:12:24;;;;;;;4.25;2.75;;;3.40;99.90;;;;;;4927467;29;20095;-72
2021/01/28 11:14:49;;;;;;;5.70;2.65;;;3.40;99.90;;;;;;4927970;29;20040;-71
2021/01/28 11:17:15;;;;;;;6.03;2.88;;;3.40;99.90;;;;;;4926797;29;20036;-71
2021/01/28 11:19:40;;;;;;;3.95;2.20;;;3.40;99.90;;;;;;4927085;29;20380;-72
2021/01/28 11:22:06;;;;;;;5.63;2.88;;;3.40;99.90;;;;;;4927158;29;20143;-71
2021/01/28 11:24:32;;;;;;;6.53;3.15;;;3.40;99.90;;;;;;4927302;29;20100;-71
2021/01/28 11:27:00;;;;;;;4.78;2.75;;;3.40;99.90;;;;;;4926320;29;20028;-73
2021/01/28 11:29:25;;;;;;;12.60;3.17;;;3.50;99.90;;;;;;4927106;29;20032;-71
2021/01/28 11:31:53;;;;;;;8.35;3.63;;;3.50;99.90;;;;;;4926742;29;20989;-71
2021/01/28 11:34:19;;;;;;;9.70;3.13;;;3.60;99.90;;;;;;4909309;29;20050;-70
2021/01/28 11:36:45;;;;;;;6.22;2.65;;;3.60;99.90;;;;;;4926942;29;20802;-71
2021/01/28 11:39:10;;;;;;;5.35;2.70;;;3.60;99.90;;;;;;4926795;29;20028;-71
2021/01/28 11:41:36;;;;;;;4.43;2.45;;;3.70;99.90;;;;;;4909220;29;20062;-71
2021/01/28 11:44:01;;;;;;;4.68;2.05;;;3.70;99.90;;;;;;4926364;29;20160;-71
2021/01/28 11:46:31;;;;;;;5.95;3.28;;;3.70;99.90;;;;;;4926857;29;20040;-71
2021/01/28 11:48:56;;;;;;;6.13;2.58;;;3.80;99.90;;;;;;4926904;29;20028;-71
2021/01/28 11:51:22;;;;;;;4.78;2.22;;;3.80;99.90;;;;;;4927106;29;20361;-71
2021/01/28 11:53:48;;;;;;;5.70;2.88;;;3.90;99.90;;;;;;4926635;29;20028;-72
2021/01/28 11:56:13;;;;;;;8.95;2.35;;;3.90;99.90;;;;;;4926860;29;20036;-71
2021/01/28 11:58:41;;;;;;;6.05;2.20;;;3.90;99.90;;;;;;4926551;29;20040;-71
2021/01/28 12:01:08;;;;;;;4.47;2.35;;;3.90;99.90;;;;;;4926518;29;20056;-71
2021/01/28 12:03:33;;;;;;;5.40;2.20;;;4.00;99.90;;;;;;4926497;29;20032;-71
2021/01/28 12:05:59;;;;;;;3.38;1.88;;;4.00;99.90;;;;;;4926816;29;20032;-72
2021/01/28 12:08:24;;;;;;;2.60;1.83;;;4.10;99.90;;;;;;4926166;29;20043;-71
2021/01/28 12:10:50;;;;;;;3.00;2.28;;;4.10;99.90;;;;;;4926608;29;20043;-71
2021/01/28 12:13:15;;;;;;;3.42;2.00;;;4.10;99.90;;;;;;4926451;29;20040;-71
2021/01/28 12:15:41;;;;;;;2.85;1.75;;;4.10;99.90;;;;;;4926516;29;20036;-70
2021/01/28 12:18:08;;;;;;;5.97;2.50;;;4.00;99.90;;;;;;4925973;29;20083;-71
2021/01/28 12:20:33;;;;;;;2.55;1.83;;;3.90;99.90;;;;;;4908914;29;20478;-70
2021/01/28 12:23:00;;;;;;;3.08;1.85;;;3.90;99.90;;;;;;4923951;29;20028;-72
2021/01/28 12:25:26;;;;;;;3.53;1.65;;;3.90;99.90;;;;;;4926507;29;20074;-71
2021/01/28 12:27:51;;;;;;;4.38;1.65;;;3.90;99.90;;;;;;4924770;29;20029;-71
2021/01/28 12:30:21;;;;;;;5.45;1.98;;;3.90;99.90;;;;;;4925881;29;20043;-71
2021/01/28 12:32:48;;;;;;;3.58;1.70;;;3.90;99.90;;;;;;4924119;29;20036;-71
2021/01/28 12:35:15;;;;;;;3.60;1.35;;;3.90;99.90;;;;;;4925956;29;20048;-71
2021/01/28 12:37:41;;;;;;;3.10;1.67;;;4.00;99.90;;;;;;4925929;29;20044;-71
2021/01/28 12:40:08;;;;;;;3.05;1.67;;;4.00;99.90;;;;;;4926238;29;20043;-71
2021/01/28 12:42:35;;;;;;;4.32;1.90;;;4.00;99.90;;;;;;4925927;29;20107;-72
2021/01/28 12:45:01;;;;;;;4.90;1.88;;;4.00;99.90;;;;;;4928679;29;20035;-72
2021/01/28 12:47:27;;;;;;;2.75;1.73;;;4.00;99.90;;;;;;4929588;29;20488;-71
2021/01/28 12:49:53;;;;;;;3.88;1.75;;;3.90;99.90;;;;;;4929507;29;20024;-71
2021/01/28 12:52:20;;;;;;;3.97;2.03;;;3.90;99.90;;;;;;4928007;29;20142;-71
2021/01/28 12:54:45;;;;;;;3.65;1.90;;;3.90;99.90;;;;;;4929463;29;20032;-71
2021/01/28 12:57:11;;;;;;;5.38;1.38;;;3.90;99.90;;;;;;4929594;29;20044;-71
2021/01/28 12:59:37;;;;;;;3.88;1.48;;;3.90;99.90;;;;;;4929151;29;20043;-71
2021/01/28 13:02:03;;;;;;;2.97;1.63;;;3.90;99.90;;;;;;4929260;29;20047;-72
2021/01/28 13:04:29;;;;;;;3.30;1.85;;;4.00;99.90;;;;;;4929324;29;20410;-72
2021/01/28 13:06:55;;;;;;;4.53;1.48;;;4.10;99.90;;;;;;4928632;29;20131;-73
2021/01/28 13:09:21;;;;;;;4.78;1.70;;;4.20;99.90;;;;;;4928809;29;20044;-71
2021/01/28 13:11:47;;;;;;;4.22;1.65;;;4.30;99.90;;;;;;4928656;29;20071;-71
2021/01/28 13:14:13;;;;;;;4.35;1.58;;;4.50;99.90;;;;;;4929268;29;20032;-71
2021/01/28 13:16:38;;;;;;;2.55;1.60;;;4.80;99.90;;;;;;4929164;29;20084;-71
2021/01/28 13:19:04;;;;;;;2.75;1.60;;;5.00;99.90;;;;;;4927417;29;20086;-72